createdAt,value
2018-04-19T00:06:25.628Z,99.90
2018-04-19T00:08:53.911Z,99.90
2018-04-19T00:11:22.183Z,99.90
2018-04-19T00:13:49.676Z,99.90
2018-04-19T00:16:17.148Z,99.90
2018-04-19T00:18:44.907Z,99.90
2018-04-19T00:21:12.379Z,99.90
2018-04-19T00:23:39.875Z,99.90
2018-04-19T00:26:08.403Z,99.90
2018-04-19T00:28:36.167Z,99.90
2018-04-19T00:31:03.688Z,99.90
2018-04-19T00:33:32.207Z,99.90
2018-04-19T00:35:59.992Z,99.90
2018-04-19T00:38:28.553Z,99.90
2018-04-19T00:40:56.484Z,99.90
2018-04-19T00:43:24.287Z,99.90
2018-04-19T00:45:51.764Z,99.90
2018-04-19T00:48:19.255Z,99.90
2018-04-19T00:50:46.728Z,99.90
2018-04-19T00:53:14.985Z,99.90
2018-04-19T00:55:42.804Z,99.90
2018-04-19T00:58:10.279Z,99.90
2018-04-19T01:00:37.767Z,99.90
2018-04-19T01:03:05.240Z,99.90
2018-04-19T01:05:33.761Z,99.90
2018-04-19T01:08:01.926Z,99.90
2018-04-19T01:10:30.003Z,99.90
2018-04-19T01:12:57.475Z,99.90
2018-04-19T01:15:24.967Z,99.90
2018-04-19T01:17:53.243Z,99.90
2018-04-19T01:20:21.503Z,99.90
2018-04-19T01:22:49.085Z,99.90
2018-04-19T01:25:17.347Z,99.90
2018-04-19T01:27:44.820Z,99.90
2018-04-19T01:30:13.201Z,99.90
2018-04-19T01:32:40.701Z,99.90
2018-04-19T01:35:08.457Z,99.90
2018-04-19T01:37:35.959Z,99.90
2018-04-19T01:40:03.461Z,99.90
2018-04-19T01:42:31.747Z,99.90
2018-04-19T01:44:59.508Z,99.90
2018-04-19T01:47:27.004Z,99.90
2018-04-19T01:49:54.733Z,99.90
2018-04-19T01:52:22.244Z,99.90
2018-04-19T01:54:50.483Z,99.90
2018-04-19T01:57:17.996Z,99.90
2018-04-19T01:59:45.472Z,99.90
2018-04-19T02:02:12.996Z,99.90
2018-04-19T02:04:41.235Z,99.90
2018-04-19T02:07:08.738Z,99.90
2018-04-19T02:09:36.997Z,99.90
2018-04-19T02:12:04.811Z,99.90
2018-04-19T02:14:32.572Z,99.90
2018-04-19T02:17:00.090Z,99.90
2018-04-19T02:19:28.364Z,99.90
2018-04-19T02:21:56.619Z,99.90
2018-04-19T02:24:24.092Z,99.90
2018-04-19T02:26:52.784Z,99.90
2018-04-19T02:29:21.307Z,99.90
2018-04-19T02:31:49.071Z,99.90
2018-04-19T02:34:16.837Z,99.90
2018-04-19T02:36:44.332Z,99.90
2018-04-19T02:39:12.572Z,99.90
2018-04-19T02:41:40.085Z,99.90
2018-04-19T02:44:08.773Z,99.90
2018-04-19T02:46:37.388Z,99.90
2018-04-19T02:49:04.880Z,99.90
2018-04-19T02:51:33.132Z,99.90
2018-04-19T02:54:00.628Z,99.90
2018-04-19T02:56:28.112Z,99.90
2018-04-19T02:58:56.624Z,99.90
2018-04-19T03:01:24.096Z,99.90
2018-04-19T03:03:51.632Z,99.90
2018-04-19T03:06:19.403Z,99.90
2018-04-19T03:08:47.120Z,99.90
2018-04-19T03:11:15.368Z,99.90
2018-04-19T03:13:42.865Z,99.90
2018-04-19T03:16:11.102Z,99.90
2018-04-19T03:18:38.591Z,99.90
2018-04-19T03:21:06.827Z,99.90
2018-04-19T03:23:34.323Z,99.90
2018-04-19T03:26:02.579Z,99.90
2018-04-19T03:28:30.824Z,99.90
2018-04-19T03:30:58.328Z,99.90
2018-04-19T03:33:26.792Z,99.90
2018-04-19T03:35:54.364Z,99.90
2018-04-19T03:38:21.844Z,99.90
2018-04-19T03:40:49.387Z,99.90
2018-04-19T03:43:16.825Z,99.90
2018-04-19T03:45:45.824Z,99.90
2018-04-19T03:48:14.804Z,99.90
2018-04-19T03:50:42.631Z,99.90
2018-04-19T03:53:10.332Z,99.90
2018-04-19T03:55:37.911Z,99.90
2018-04-19T03:58:06.152Z,99.90
2018-04-19T04:00:33.652Z,99.90
2018-04-19T04:03:02.172Z,99.90
2018-04-19T04:05:29.663Z,99.90
2018-04-19T04:07:58.928Z,99.90
2018-04-19T04:10:26.691Z,99.90
2018-04-19T04:12:54.183Z,99.90
2018-04-19T04:15:21.759Z,99.90
2018-04-19T04:18:02.271Z,99.90
2018-04-19T04:20:41.660Z,99.90
2018-04-19T04:23:44.592Z,99.90
2018-04-19T04:26:12.108Z,99.90
2018-04-19T04:28:40.363Z,99.90
2018-04-19T04:31:07.899Z,99.90
2018-04-19T04:33:36.105Z,99.90
2018-04-19T04:36:03.589Z,99.90
2018-04-19T04:38:31.848Z,99.90
2018-04-19T04:41:00.093Z,99.90
2018-04-19T04:43:27.595Z,99.90
2018-04-19T04:45:55.855Z,99.90
2018-04-19T04:48:24.111Z,99.90
2018-04-19T04:50:51.597Z,99.90
2018-04-19T04:53:19.852Z,99.90
2018-04-19T04:55:48.841Z,99.90
2018-04-19T04:58:16.415Z,99.90
2018-04-19T05:00:44.655Z,99.90
2018-04-19T05:03:12.147Z,99.90
2018-04-19T05:05:40.425Z,99.90
2018-04-19T05:08:07.902Z,99.90
2018-04-19T05:10:35.395Z,99.90
2018-04-19T05:13:02.868Z,99.90
2018-04-19T05:15:30.606Z,99.90
2018-04-19T05:17:58.083Z,99.90
2018-04-19T05:20:25.694Z,99.90
2018-04-19T05:22:53.931Z,99.90
2018-04-19T05:25:21.518Z,99.90
2018-04-19T05:27:49.761Z,94.40
2018-04-19T05:30:17.239Z,94.40
2018-04-19T05:32:44.728Z,91.20
2018-04-19T05:35:12.203Z,87.30
2018-04-19T05:37:39.968Z,80.70
2018-04-19T05:40:07.663Z,82.10
2018-04-19T05:42:35.399Z,75.70
2018-04-19T05:45:02.876Z,76.40
2018-04-19T05:47:30.583Z,74.30
2018-04-19T05:49:58.823Z,65.60
2018-04-19T05:52:26.323Z,66.20
2018-04-19T05:54:53.795Z,61.10
2018-04-19T05:57:21.267Z,54.10
2018-04-19T05:59:48.772Z,53.40
2018-04-19T06:02:17.019Z,52.80
2018-04-19T06:04:44.512Z,52.90
2018-04-19T06:07:12.771Z,53.90
2018-04-19T06:09:40.267Z,53.90
2018-04-19T06:12:07.739Z,54.30
2018-04-19T06:14:35.504Z,53.20
2018-04-19T06:17:02.979Z,52.30
2018-04-19T06:19:30.472Z,59.60
2018-04-19T06:21:58.723Z,49.80
2018-04-19T06:24:26.215Z,49.80
2018-04-19T06:26:54.731Z,47.80
2018-04-19T06:29:22.216Z,47.70
2018-04-19T06:31:49.703Z,51.40
2018-04-19T06:34:17.947Z,48.70
2018-04-19T06:36:45.436Z,48.60
2018-04-19T06:39:13.678Z,46.90
2018-04-19T06:41:41.186Z,46.90
2018-04-19T06:44:08.663Z,44.80
2018-04-19T06:46:36.156Z,45.70
2018-04-19T06:49:03.638Z,47.00
2018-04-19T06:51:32.164Z,46.20
2018-04-19T06:53:59.656Z,46.10
2018-04-19T06:56:27.384Z,46.00
2018-04-19T06:58:54.876Z,45.90
2018-04-19T07:01:22.603Z,42.90
2018-04-19T07:03:50.315Z,42.80
2018-04-19T07:06:17.787Z,43.90
2018-04-19T07:08:46.028Z,45.50
2018-04-19T07:11:13.615Z,45.50
2018-04-19T07:13:41.855Z,45.80
2018-04-19T07:16:09.599Z,45.70
2018-04-19T07:18:37.073Z,48.00
2018-04-19T07:21:04.568Z,48.30
2018-04-19T07:23:32.836Z,48.20
2018-04-19T07:26:00.324Z,48.20
2018-04-19T07:28:27.804Z,46.90
2018-04-19T07:30:55.287Z,47.40
2018-04-19T07:33:22.776Z,47.70
2018-04-19T07:35:51.052Z,48.10
2018-04-19T07:38:19.311Z,47.50
2018-04-19T07:40:46.791Z,47.50
2018-04-19T07:43:15.072Z,47.60
2018-04-19T07:45:42.616Z,47.70
2018-04-19T07:48:11.108Z,49.10
2018-04-19T07:50:38.906Z,49.00
2018-04-19T07:53:06.400Z,48.90
2018-04-19T07:55:34.133Z,48.40
2018-04-19T07:58:01.734Z,46.80
2018-04-19T08:00:29.891Z,49.00
2018-04-19T08:02:57.360Z,49.00
2018-04-19T08:05:24.883Z,49.90
2018-04-19T08:07:52.335Z,50.50
2018-04-19T08:10:19.849Z,49.20
2018-04-19T08:12:48.105Z,48.50
2018-04-19T08:15:15.603Z,48.60
2018-04-19T08:17:43.079Z,48.50
2018-04-19T08:20:10.603Z,49.60
2018-04-19T08:22:38.844Z,49.00
2018-04-19T08:25:06.432Z,49.00
2018-04-19T08:27:34.671Z,48.40
2018-04-19T08:30:02.157Z,48.40
2018-04-19T08:32:30.419Z,48.00
2018-04-19T08:34:57.948Z,47.90
2018-04-19T08:37:25.406Z,47.40
2018-04-19T08:39:52.886Z,47.50
2018-04-19T08:42:20.379Z,47.10
2018-04-19T08:44:48.623Z,47.80
2018-04-19T08:47:16.141Z,47.70
2018-04-19T08:49:43.656Z,49.70
2018-04-19T08:52:11.923Z,46.80
2018-04-19T08:54:40.181Z,48.30
2018-04-19T08:57:07.655Z,48.30
2018-04-19T08:59:35.151Z,46.70
2018-04-19T09:02:02.683Z,46.60
2018-04-19T09:04:30.956Z,47.50
2018-04-19T09:06:59.200Z,46.10
2018-04-19T09:09:26.700Z,46.10
2018-04-19T09:11:54.952Z,47.50
2018-04-19T09:14:22.447Z,47.40
2018-04-19T09:16:49.928Z,45.80
2018-04-19T09:19:17.463Z,47.10
2018-04-19T09:21:45.248Z,44.90
2018-04-19T09:24:12.801Z,45.90
2018-04-19T09:26:40.569Z,44.70
2018-04-19T09:29:08.043Z,45.80
2018-04-19T09:31:35.535Z,45.10
2018-04-19T09:34:04.066Z,44.70
2018-04-19T09:36:31.827Z,45.10
2018-04-19T09:38:59.316Z,45.00
2018-04-19T09:41:26.801Z,44.40
2018-04-19T09:43:55.064Z,45.90
2018-04-19T09:46:22.540Z,46.70
2018-04-19T09:48:50.799Z,44.30
2018-04-19T09:51:22.932Z,44.40
2018-04-19T09:53:50.489Z,45.50
2018-04-19T09:56:18.688Z,46.30
2018-04-19T10:12:12.548Z,42.40
2018-04-19T10:14:41.543Z,44.30
2018-04-19T10:17:10.800Z,44.10
2018-04-19T10:19:38.299Z,43.40
2018-04-19T10:22:05.779Z,40.20
2018-04-19T10:24:34.019Z,43.70
2018-04-19T10:27:01.509Z,41.20
2018-04-19T10:29:29.752Z,42.00
2018-04-19T10:31:57.343Z,41.80
2018-04-19T10:34:25.586Z,41.50
2018-04-19T10:36:53.424Z,41.60
2018-04-19T10:39:20.909Z,42.60
2018-04-19T10:41:48.410Z,42.30
2018-04-19T10:44:16.650Z,43.50
2018-04-19T10:46:44.127Z,43.50
2018-04-19T10:49:12.403Z,38.60
2018-04-19T10:51:40.675Z,39.70
2018-04-19T10:54:09.211Z,41.00
2018-04-19T10:56:37.428Z,39.30
2018-04-19T10:59:05.713Z,38.60
2018-04-19T11:01:33.955Z,38.80
2018-04-19T11:04:01.456Z,38.80
2018-04-19T11:06:29.692Z,37.40
2018-04-19T11:08:57.176Z,37.30
2018-04-19T11:11:25.701Z,37.30
2018-04-19T11:13:53.180Z,37.40
2018-04-19T11:16:20.775Z,37.40
2018-04-19T11:18:49.016Z,37.20
2018-04-19T11:21:16.507Z,37.20
2018-04-19T11:23:44.747Z,36.40
2018-04-19T11:26:12.216Z,36.30
2018-04-19T11:28:39.707Z,38.50
2018-04-19T11:31:07.948Z,36.60
2018-04-19T11:33:35.444Z,36.50
2018-04-19T11:36:02.924Z,36.30
2018-04-19T11:38:30.423Z,36.00
2018-04-19T11:40:58.148Z,37.70
2018-04-19T11:43:25.640Z,36.50
2018-04-19T11:45:53.224Z,36.20
2018-04-19T11:48:21.464Z,36.40
2018-04-19T11:50:49.064Z,36.40
2018-04-19T11:53:17.304Z,36.90
2018-04-19T11:55:44.804Z,36.90
2018-04-19T11:58:12.281Z,35.90
2018-04-19T12:00:39.771Z,35.90
2018-04-19T12:03:07.243Z,35.90
2018-04-19T12:05:34.739Z,37.50
2018-04-19T12:08:02.208Z,37.80
2018-04-19T12:10:29.984Z,37.30
2018-04-19T12:12:57.483Z,37.30
2018-04-19T12:15:25.059Z,34.80
2018-04-19T12:17:53.315Z,35.40
2018-04-19T12:20:20.788Z,35.40
2018-04-19T12:22:49.316Z,36.00
2018-04-19T12:25:16.789Z,35.40
2018-04-19T12:27:44.280Z,35.70
2018-04-19T12:30:11.843Z,35.00
2018-04-19T12:32:40.103Z,37.30
2018-04-19T12:35:07.576Z,36.70
2018-04-19T12:37:35.896Z,35.60
2018-04-19T12:40:03.328Z,35.60
2018-04-19T12:42:30.804Z,34.70
2018-04-19T12:44:58.512Z,35.40
2018-04-19T12:47:26.092Z,35.60
2018-04-19T12:49:54.351Z,34.80
2018-04-19T12:52:22.044Z,34.90
2018-04-19T12:54:50.410Z,36.10
2018-04-19T12:57:18.649Z,35.90
2018-04-19T12:59:46.144Z,35.90
2018-04-19T13:02:14.416Z,38.40
2018-04-19T13:04:42.671Z,36.10
2018-04-19T13:07:10.405Z,36.10
2018-04-19T13:09:38.159Z,36.30
2018-04-19T13:12:05.640Z,36.50
2018-04-19T13:14:33.356Z,35.00
2018-04-19T13:17:01.656Z,35.80
2018-04-19T13:19:29.420Z,37.20
2018-04-19T13:21:57.221Z,36.20
2018-04-19T13:24:24.696Z,36.20
2018-04-19T13:26:52.936Z,37.40
2018-04-19T13:29:20.408Z,37.30
2018-04-19T13:31:48.136Z,37.90
2018-04-19T13:34:15.612Z,36.60
2018-04-19T13:36:43.103Z,37.30
2018-04-19T13:39:11.363Z,36.80
2018-04-19T13:41:38.837Z,36.60
2018-04-19T13:44:07.103Z,36.60
2018-04-19T13:46:34.579Z,36.60
2018-04-19T13:49:02.844Z,35.50
2018-04-19T13:51:31.103Z,37.40
2018-04-19T13:53:58.581Z,36.70
2018-04-19T13:56:26.836Z,37.00
2018-04-19T13:58:54.564Z,37.00
2018-04-19T14:01:22.060Z,35.70
2018-04-19T14:03:49.539Z,37.40
2018-04-19T14:06:17.799Z,37.20
2018-04-19T14:08:45.272Z,37.10
2018-04-19T14:11:13.544Z,36.00
2018-04-19T14:13:41.815Z,34.00
2018-04-19T14:16:10.076Z,34.70
2018-04-19T14:18:37.552Z,34.70
2018-04-19T14:21:06.072Z,35.30
2018-04-19T14:23:33.569Z,35.30
2018-04-19T14:26:02.547Z,35.80
2018-04-19T14:28:30.042Z,35.70
2018-04-19T14:30:58.279Z,35.60
2018-04-19T14:33:25.768Z,35.70
2018-04-19T14:35:53.327Z,36.40
2018-04-19T14:38:21.642Z,37.20
2018-04-19T14:40:49.876Z,35.90
2018-04-19T14:43:18.120Z,34.70
2018-04-19T14:45:45.617Z,35.20
2018-04-19T14:48:13.887Z,34.00
2018-04-19T14:50:42.152Z,35.50
2018-04-19T14:53:09.724Z,35.30
2018-04-19T14:55:38.247Z,35.70
2018-04-19T14:58:05.724Z,35.60
2018-04-19T15:00:33.474Z,35.40
2018-04-19T15:03:00.963Z,37.20
2018-04-19T15:05:28.435Z,35.90
2018-04-19T15:07:55.972Z,35.40
2018-04-19T15:10:23.448Z,34.50
2018-04-19T15:12:51.013Z,34.70
2018-04-19T15:15:19.252Z,35.40
2018-04-19T15:17:46.997Z,35.30
2018-04-19T15:20:14.475Z,35.40
2018-04-19T15:22:41.952Z,36.10
2018-04-19T15:25:09.447Z,35.40
2018-04-19T15:27:37.023Z,35.90
2018-04-19T15:30:04.512Z,35.20
2018-04-19T15:32:31.999Z,35.10
2018-04-19T15:35:00.283Z,35.50
2018-04-19T15:37:28.526Z,35.60
2018-04-19T15:39:56.011Z,35.50
2018-04-19T15:42:24.280Z,34.70
2018-04-19T15:44:52.616Z,36.30
2018-04-19T15:47:20.107Z,35.60
2018-04-19T15:49:47.584Z,36.20
2018-04-19T15:52:15.844Z,35.00
2018-04-19T15:54:44.092Z,35.20
2018-04-19T15:57:11.603Z,35.20
2018-04-19T15:59:39.392Z,35.30
2018-04-19T16:02:06.953Z,35.80
2018-04-19T16:04:34.617Z,36.70
2018-04-19T16:07:02.092Z,36.20
2018-04-19T16:09:29.931Z,35.70
2018-04-19T16:11:57.473Z,35.00
2018-04-19T16:14:25.242Z,34.80
2018-04-19T16:16:52.768Z,34.60
2018-04-19T16:19:20.331Z,34.80
2018-04-19T16:21:48.591Z,35.20
2018-04-19T16:24:16.063Z,35.20
2018-04-19T16:26:44.335Z,36.10
2018-04-19T16:29:11.834Z,35.40
2018-04-19T16:31:39.352Z,35.70
2018-04-19T16:34:07.628Z,35.90
2018-04-19T16:36:35.871Z,35.90
2018-04-19T16:39:03.712Z,35.90
2018-04-19T16:41:31.476Z,35.00
2018-04-19T16:43:59.243Z,35.40
2018-04-19T16:46:26.736Z,35.20
2018-04-19T16:48:54.216Z,34.70
2018-04-19T16:51:22.459Z,35.00
2018-04-19T16:53:49.948Z,34.90
2018-04-19T16:56:18.188Z,34.00
2018-04-19T16:58:45.900Z,33.90
2018-04-19T17:01:13.376Z,34.00
2018-04-19T17:03:41.623Z,33.20
2018-04-19T17:06:09.176Z,33.20
2018-04-19T17:08:36.604Z,33.40
2018-04-19T17:11:04.105Z,33.90
2018-04-19T17:13:31.579Z,34.30
2018-04-19T17:15:59.348Z,33.40
2018-04-19T17:18:26.918Z,34.60
2018-04-19T17:20:54.416Z,35.20
2018-04-19T17:23:22.235Z,34.90
2018-04-19T17:25:49.932Z,35.10
2018-04-19T17:28:17.408Z,35.00
2018-04-19T17:30:45.661Z,35.10
2018-04-19T17:33:13.132Z,35.00
2018-04-19T17:35:40.627Z,35.80
2018-04-19T17:38:08.389Z,35.50
2018-04-19T17:40:35.875Z,35.40
2018-04-19T17:43:03.363Z,36.00
2018-04-19T17:45:30.835Z,35.80
2018-04-19T17:47:59.108Z,36.40
2018-04-19T17:50:31.726Z,37.70
2018-04-19T17:53:06.780Z,37.60
2018-04-19T17:55:45.486Z,37.70
2018-04-19T17:58:15.760Z,38.00
2018-04-19T18:00:44.010Z,39.10
2018-04-19T18:03:11.600Z,39.00
2018-04-19T18:05:39.856Z,40.10
2018-04-19T18:08:07.657Z,40.10
2018-04-19T18:10:34.934Z,40.40
2018-04-19T18:13:02.487Z,40.40
2018-04-19T18:15:29.959Z,40.80
2018-04-19T18:17:57.501Z,41.00
2018-04-19T18:20:24.978Z,41.10
2018-04-19T18:22:52.778Z,41.60
2018-04-19T18:25:20.216Z,42.50
2018-04-19T18:27:47.739Z,43.00
2018-04-19T18:30:15.956Z,44.10
2018-04-19T18:32:43.488Z,44.00
2018-04-19T18:35:11.055Z,44.70
2018-04-19T18:40:21.154Z,45.80
2018-04-19T18:42:48.718Z,45.80
2018-04-19T18:45:16.960Z,46.40
2018-04-19T18:47:44.452Z,46.40
2018-04-19T18:50:12.696Z,46.80
2018-04-19T18:52:40.432Z,46.60
2018-04-19T18:55:07.953Z,46.90
2018-04-19T18:57:36.192Z,47.40
2018-04-19T19:00:03.700Z,47.40
2018-04-19T19:02:31.199Z,46.70
2018-04-19T19:04:58.944Z,47.30
2018-04-19T19:07:26.465Z,47.00
2018-04-19T19:09:54.725Z,47.20
2018-04-19T19:12:23.264Z,47.20
2018-04-19T19:14:51.024Z,47.20
2018-04-19T19:17:30.620Z,47.50
2018-04-19T19:20:10.576Z,47.90
2018-04-19T19:22:38.095Z,47.90
2018-04-19T19:25:05.838Z,48.10
2018-04-19T19:27:33.603Z,48.40
2018-04-19T19:30:01.096Z,49.10
2018-04-19T19:32:28.673Z,48.80
2018-04-19T19:34:56.981Z,49.70
2018-04-19T19:37:24.478Z,49.10
2018-04-19T19:39:52.004Z,50.60
2018-04-19T19:42:20.208Z,50.20
2018-04-19T19:44:47.712Z,49.70
2018-04-19T19:47:15.959Z,51.70
2018-04-19T19:49:43.780Z,53.00
2018-04-19T19:52:11.337Z,50.50
2018-04-19T19:54:38.856Z,50.70
2018-04-19T19:57:07.380Z,50.80
2018-04-19T19:59:34.895Z,50.80
2018-04-19T20:02:03.140Z,51.10
2018-04-19T20:04:31.385Z,51.40
2018-04-19T20:06:58.879Z,51.30
2018-04-19T20:09:26.361Z,51.10
2018-04-19T20:11:54.883Z,51.60
2018-04-19T20:14:22.407Z,51.60
2018-04-19T20:16:50.652Z,52.00
2018-04-19T20:19:18.127Z,52.00
2018-04-19T20:21:45.692Z,52.50
2018-04-19T20:24:13.928Z,53.50
2018-04-19T20:26:41.404Z,52.80
2018-04-19T20:29:08.902Z,53.30
2018-04-19T20:31:36.688Z,53.50
2018-04-19T20:34:04.206Z,54.20
2018-04-19T20:36:32.487Z,54.80
2018-04-19T20:39:00.727Z,55.80
2018-04-19T20:41:28.206Z,55.80
2018-04-19T20:43:56.467Z,63.00
2018-04-19T20:46:23.940Z,62.60
2018-04-19T20:48:52.193Z,71.40
2018-04-19T20:51:19.928Z,71.70
2018-04-19T20:53:47.405Z,82.40
2018-04-19T20:56:15.143Z,91.50
2018-04-19T20:58:42.680Z,94.70
2018-04-19T21:01:10.160Z,95.90
2018-04-19T21:03:37.692Z,97.80
2018-04-19T21:06:05.197Z,99.70
2018-04-19T21:08:32.672Z,99.90
2018-04-19T21:11:00.148Z,99.90
2018-04-19T21:13:28.424Z,99.90
2018-04-19T21:15:56.661Z,99.90
2018-04-19T21:18:24.404Z,99.90
2018-04-19T21:20:51.897Z,99.90
2018-04-19T21:23:19.371Z,99.90
2018-04-19T21:25:47.616Z,99.90
2018-04-19T21:28:15.108Z,99.90
2018-04-19T21:30:43.348Z,99.90
2018-04-19T21:33:10.820Z,99.90
2018-04-19T21:35:38.315Z,99.90
2018-04-19T21:38:05.792Z,99.90
2018-04-19T21:40:33.315Z,99.90
2018-04-19T21:43:01.842Z,99.90
2018-04-19T21:45:29.315Z,99.90
2018-04-19T21:47:56.813Z,99.90
2018-04-19T21:50:25.071Z,99.90
2018-04-19T21:52:53.612Z,99.90
2018-04-19T21:55:21.129Z,99.90
2018-04-19T21:57:49.388Z,99.90
2018-04-19T22:00:16.864Z,99.90
2018-04-19T22:02:45.104Z,99.90
2018-04-19T22:05:12.600Z,99.90
2018-04-19T22:07:40.839Z,99.90
2018-04-19T22:10:08.315Z,99.90
2018-04-19T22:12:35.809Z,99.90
2018-04-19T22:15:03.589Z,99.90
2018-04-19T22:17:31.072Z,99.90
2018-04-19T22:19:58.564Z,99.90
2018-04-19T22:22:26.803Z,99.90
2018-04-19T22:24:54.277Z,99.90
2018-04-19T22:27:21.774Z,99.90
2018-04-19T22:29:49.248Z,99.90
2018-04-19T22:32:16.727Z,99.90
2018-04-19T22:34:44.224Z,99.90
2018-04-19T22:37:12.744Z,99.90
2018-04-19T22:39:40.247Z,99.90
2018-04-19T22:42:07.729Z,99.90
2018-04-19T22:44:35.972Z,99.90
2018-04-19T22:47:03.444Z,99.90
2018-04-19T22:49:31.707Z,99.90
2018-04-19T22:51:59.428Z,99.90
2018-04-19T22:54:26.908Z,99.90
2018-04-19T22:56:54.404Z,99.90
2018-04-19T22:59:22.639Z,99.90
2018-04-19T23:01:50.379Z,99.90
2018-04-19T23:04:17.876Z,99.90
2018-04-19T23:06:46.119Z,99.90
2018-04-19T23:09:13.592Z,99.90
2018-04-19T23:11:41.087Z,99.90
2018-04-19T23:14:10.028Z,99.90
2018-04-19T23:16:37.784Z,99.90
2018-04-19T23:19:05.548Z,99.90
2018-04-19T23:21:33.068Z,99.90
2018-04-19T23:24:01.307Z,99.90
2018-04-19T23:26:28.804Z,99.90
2018-04-19T23:28:56.352Z,99.90
2018-04-19T23:31:24.875Z,99.90
2018-04-19T23:33:52.791Z,99.90
2018-04-19T23:36:21.047Z,99.90
2018-04-19T23:38:48.540Z,99.90
2018-04-19T23:41:16.801Z,99.90
2018-04-19T23:43:44.275Z,99.90
2018-04-19T23:46:12.515Z,99.90
2018-04-19T23:48:40.096Z,99.90
2018-04-19T23:51:08.364Z,99.90
2018-04-19T23:53:36.184Z,99.90
2018-04-19T23:56:03.704Z,99.90
2018-04-19T23:58:31.948Z,99.90
